Arches Natl Park, Utah
Current Conditions -  °F | °C
As of 6:53 AM on Saturday 22 Nov 2014 (Local Time) from KCNY Reporting Station
Clear Clear  
Wind Chill: 23°   Ceiling: Unl
Heat Index: 23°   Visibility: 10mi
Dew Point: 13°   Wind: 0mph
Humidity: 65%   Direction: NA
Pressure: 30.06"   Gusts: NA
Location:  38.7°N, 109.75°W
Report Text: KCNY 221353Z AUTO 00000KT 10SM CLR M05/M11 A3006 RMK AO2 SLP206 T10501106
Loading
Personal Weather Stations






























Interactive Weather Map New forecast layout! Learn more

10-Day Weather Forecast

Advertisements
Track Severe Weather on mobile